Route Details

Aircraft Information
Group: North America Fleet
Types: B738, B752, B762, B763
Route Data
Distance: 517nm
Duration: 2h 04m
Origin METAR: KIAD 171052Z 32005KT 10SM BKN150 17/15 A3004 RMK AO2 SLP169 T01670150
Dest. METAR: KHSV 170553Z AUTO 02004KT 10SM FEW060 BKN090 22/18 A2998 RMK AO2 SLP145 T02220183 10250 20222 402780200 56006
Freight Data
(for Aug 18, 2022)
Load Factor:
20%
Manifested Cargo: 17,525lbs
Financial History
Total Freight: 159,468lbs
Average Load: 0lbs/flt
Fuel Used: 32,207lbs
Avg. Fuel Used: 0lbs/flt
Fuel Expense: $41,547
Avg. Fuel Expense: $0
Avg. Fuel Cost: $0/lbs
Total Gross Income: $229,953
Pilot Pay: $298
Total Expenses: $24,939
Total Revenue: $162,703
Average Revenue: $0

Capitol Logistics 491




KIAD
Washington Dulles International Airport
Dulles, Virginia
KHSV
Huntsville International Airport
Huntsville, Alabama

Activity Log

Date Flight Route Aircraft Duration
03/28/2021 CPX468 CLTCH2 MAULS Q40 ALEAN VXV RQZ B752 2h 06m
01/18/2020 CPX468 CLTCH2 MAULS Q40 ALEAN VXV RQZ B763 2h 08m